Decoded Metar for KNFL (FALLON in NV, USA) (IATA:NFL) | Meteo·Mobile Aviation Weather
aviador You're here:

KNFL Decoded Metar

FALLON in NV, USA
Report Time2018-12-10 15:56:00
UTC Time2018-12-10 16:18:50
Flight Rules ifr IFR
Wind330° at 03 kt
W.Decomp.*RWY 31: 3.0 kt HW 0.3 kt RCW
RWY 25: 1.2 kt HW 2.7 kt RCW
W.Rank330° ranks 17
Current wind is below 330° avg. (7.1)
Visibility9999 m
Phenomena:N/A
Clouds:Overcast 007 Hf
Expected CloudBase > 400 ft AGL from Temp-Dew spread
Ceiling700 ft
Temp-1°C (ISA -8)
Dew Point-2°C (93% RH)
AAT-4.3°C
QNH1025 hPa
Density Alt2,621 ft
Elevation3,934 ft
Report Wrong Elevation
Raw Report
KNFL 101556Z 33003KT 10SM OVC007 M01/M02 A3026 RMK AO2 SLP208
T10061017=

Extra information for KNFL:More info

Metar Taf Metar & Taf Last 4 Metars F.Rules Stats Wind Profile Meteogram Temp Stats Airport Information Weather charts Add Link Nearby VenuesMetar ALERT Operation Metar Decoded Social comments

AIRNAV info for KNFL